createdAt,value
2018-03-21T00:00:41.751Z,4.47
2018-03-21T00:03:09.318Z,2.60
2018-03-21T00:05:50.359Z,4.70
2018-03-21T00:08:17.938Z,5.63
2018-03-21T00:10:45.398Z,4.53
2018-03-21T00:13:12.865Z,6.00
2018-03-21T00:15:40.409Z,5.97
2018-03-21T00:18:07.903Z,4.40
2018-03-21T00:20:35.533Z,4.00
2018-03-21T00:23:02.985Z,5.50
2018-03-21T00:25:30.450Z,6.90
2018-03-21T00:27:58.690Z,3.83
2018-03-21T00:30:26.120Z,6.50
2018-03-21T00:32:53.566Z,6.77
2018-03-21T00:35:21.037Z,5.07
2018-03-21T00:37:48.474Z,6.82
2018-03-21T00:40:15.956Z,4.32
2018-03-21T00:42:43.585Z,6.70
2018-03-21T00:45:11.019Z,2.93
2018-03-21T00:47:38.490Z,6.05
2018-03-21T00:50:06.851Z,5.02
2018-03-21T00:52:38.133Z,4.83
2018-03-21T00:55:05.868Z,6.25
2018-03-21T00:57:33.549Z,5.37
2018-03-21T01:00:02.011Z,3.93
2018-03-21T01:02:29.465Z,4.80
2018-03-21T01:04:57.114Z,3.75
2018-03-21T01:07:24.554Z,4.50
2018-03-21T01:09:52.078Z,4.53
2018-03-21T01:12:19.825Z,3.50
2018-03-21T01:14:47.915Z,5.37
2018-03-21T01:17:15.352Z,5.47
2018-03-21T01:19:43.592Z,5.53
2018-03-21T01:22:14.067Z,6.20
2018-03-21T01:24:41.512Z,4.73
2018-03-21T01:27:08.992Z,4.70
2018-03-21T01:29:36.432Z,3.75
2018-03-21T01:32:04.181Z,5.90
2018-03-21T01:34:31.621Z,4.20
2018-03-21T01:36:59.325Z,6.53
2018-03-21T01:39:26.764Z,5.17
2018-03-21T01:41:54.224Z,6.82
2018-03-21T01:44:21.766Z,6.43
2018-03-21T01:46:49.213Z,5.37
2018-03-21T01:49:16.680Z,7.00
2018-03-21T01:51:44.140Z,4.03
2018-03-21T01:54:11.613Z,5.77
2018-03-21T01:56:39.049Z,4.70
2018-03-21T01:59:07.342Z,3.70
2018-03-21T02:01:34.802Z,5.35
2018-03-21T02:04:02.245Z,7.00
2018-03-21T02:06:29.721Z,4.80
2018-03-21T02:08:58.060Z,3.00
2018-03-21T02:11:25.841Z,5.47
2018-03-21T02:13:53.313Z,5.07
2018-03-21T02:16:21.969Z,6.00
2018-03-21T02:18:49.420Z,5.22
2018-03-21T02:21:16.930Z,5.53
2018-03-21T02:23:47.832Z,2.80
2018-03-21T02:26:15.492Z,5.20
2018-03-21T02:28:43.058Z,5.30
2018-03-21T02:31:11.723Z,5.95
2018-03-21T02:33:39.155Z,6.17
2018-03-21T02:36:06.640Z,5.70
2018-03-21T02:38:37.597Z,7.23
2018-03-21T02:41:05.957Z,7.03
2018-03-21T02:43:33.434Z,6.00
2018-03-21T02:46:00.897Z,2.67
2018-03-21T02:48:28.375Z,6.63
2018-03-21T02:50:56.595Z,6.65
2018-03-21T02:53:29.609Z,5.70
2018-03-21T02:55:57.065Z,7.17
2018-03-21T02:58:26.052Z,5.12
2018-03-21T03:00:53.509Z,5.62
2018-03-21T03:03:21.082Z,5.93
2018-03-21T03:05:48.522Z,6.23
2018-03-21T03:08:16.002Z,6.57
2018-03-21T03:10:43.449Z,6.13
2018-03-21T03:13:10.895Z,6.30
2018-03-21T03:15:39.294Z,6.90
2018-03-21T03:18:06.737Z,5.77
2018-03-21T03:20:34.389Z,6.37
2018-03-21T03:23:01.842Z,5.50
2018-03-21T03:25:29.483Z,5.87
2018-03-21T03:27:57.004Z,5.78
2018-03-21T03:30:24.449Z,6.90
2018-03-21T03:32:53.173Z,6.32
2018-03-21T03:35:20.627Z,7.45
2018-03-21T03:37:48.094Z,6.82
2018-03-21T03:40:15.544Z,6.40
2018-03-21T03:42:43.012Z,6.63
2018-03-21T03:45:10.453Z,3.97
2018-03-21T03:47:37.901Z,6.17
2018-03-21T03:50:05.372Z,5.18
2018-03-21T03:52:32.815Z,6.47
2018-03-21T03:55:01.111Z,6.40
2018-03-21T03:57:28.549Z,6.57
2018-03-21T03:59:57.282Z,5.82
2018-03-21T04:02:26.367Z,6.10
2018-03-21T04:04:54.653Z,5.70
2018-03-21T04:07:22.117Z,6.30
2018-03-21T04:09:53.997Z,4.90
2018-03-21T04:12:21.437Z,5.47
2018-03-21T04:14:48.909Z,6.00
2018-03-21T04:17:16.591Z,7.37
2018-03-21T04:19:45.757Z,6.15
2018-03-21T04:22:13.219Z,6.90
2018-03-21T04:24:40.682Z,7.23
2018-03-21T04:27:08.158Z,6.23
2018-03-21T04:29:36.365Z,5.72
2018-03-21T04:32:04.465Z,6.37
2018-03-21T04:34:31.904Z,7.37
2018-03-21T04:36:59.348Z,7.03
2018-03-21T04:39:26.818Z,7.83
2018-03-21T04:41:54.289Z,5.63
2018-03-21T04:44:21.775Z,6.83
2018-03-21T04:46:49.408Z,5.80
2018-03-21T04:49:17.805Z,6.35
2018-03-21T04:51:46.054Z,7.00
2018-03-21T04:54:13.604Z,7.00
2018-03-21T04:56:41.178Z,7.00
2018-03-21T04:59:08.647Z,5.30
2018-03-21T05:01:36.407Z,7.20
2018-03-21T05:04:03.857Z,7.00
2018-03-21T05:06:32.549Z,6.95
2018-03-21T05:09:00.005Z,7.72
2018-03-21T05:11:30.532Z,7.22
2018-03-21T05:13:57.982Z,6.97
2018-03-21T05:16:25.484Z,6.17
2018-03-21T05:18:52.983Z,7.85
2018-03-21T05:21:20.434Z,8.65
2018-03-21T05:23:47.873Z,7.77
2018-03-21T05:26:19.286Z,7.35
2018-03-21T05:28:48.235Z,6.60
2018-03-21T05:31:16.315Z,7.35
2018-03-21T05:33:43.761Z,7.30
2018-03-21T05:36:11.216Z,6.70
2018-03-21T05:38:38.699Z,7.22
2018-03-21T05:41:06.165Z,7.97
2018-03-21T05:43:37.950Z,8.30
2018-03-21T05:46:06.695Z,2.35
2018-03-21T05:48:34.285Z,7.03
2018-03-21T05:51:01.764Z,8.52
2018-03-21T05:53:29.218Z,4.45
2018-03-21T05:55:56.669Z,6.22
2018-03-21T05:58:24.765Z,7.10
2018-03-21T06:00:52.267Z,7.95
2018-03-21T06:03:19.722Z,7.80
2018-03-21T06:05:47.177Z,8.40
2018-03-21T06:08:14.857Z,5.97
2018-03-21T06:10:42.311Z,7.20
2018-03-21T06:13:13.866Z,9.30
2018-03-21T06:15:41.320Z,7.90
2018-03-21T06:18:09.897Z,7.20
2018-03-21T06:20:37.361Z,6.10
2018-03-21T06:23:04.815Z,9.80
2018-03-21T06:25:32.605Z,5.90
2018-03-21T06:28:03.350Z,10.00
2018-03-21T06:30:31.602Z,8.57
2018-03-21T06:32:59.341Z,6.20
2018-03-21T06:35:26.818Z,6.70
2018-03-21T06:37:54.254Z,4.80
2018-03-21T06:40:21.722Z,9.70
2018-03-21T06:42:49.202Z,7.78
2018-03-21T06:45:16.645Z,7.53
2018-03-21T06:47:44.106Z,7.97
2018-03-21T06:50:13.077Z,7.95
2018-03-21T06:52:40.542Z,4.07
2018-03-21T06:55:08.022Z,9.87
2018-03-21T06:57:40.069Z,7.97
2018-03-21T07:00:07.525Z,6.80
2018-03-21T07:02:35.010Z,4.07
2018-03-21T07:05:02.466Z,6.40
2018-03-21T07:07:30.418Z,5.43
2018-03-21T07:09:57.895Z,7.60
2018-03-21T07:12:27.027Z,5.53
2018-03-21T07:15:09.262Z,5.57
2018-03-21T07:17:36.718Z,7.53
2018-03-21T07:20:04.368Z,6.50
2018-03-21T07:22:31.877Z,5.73
2018-03-21T07:24:59.476Z,4.82
2018-03-21T07:27:27.685Z,5.28
2018-03-21T07:30:02.190Z,6.50
2018-03-21T07:32:29.863Z,4.80
2018-03-21T07:34:58.278Z,4.87
2018-03-21T07:37:26.107Z,6.87
2018-03-21T07:39:53.585Z,3.37
2018-03-21T07:42:21.365Z,5.28
2018-03-21T07:44:48.806Z,3.10
2018-03-21T07:47:16.281Z,4.25
2018-03-21T07:49:43.744Z,5.60
2018-03-21T07:52:12.138Z,5.57
2018-03-21T07:54:39.747Z,4.28
2018-03-21T07:57:08.077Z,4.40
2018-03-21T07:59:36.469Z,4.32
2018-03-21T08:02:03.909Z,5.57
2018-03-21T08:04:32.228Z,5.50
2018-03-21T08:06:59.701Z,3.67
2018-03-21T08:09:27.167Z,3.80
2018-03-21T08:11:54.629Z,5.30
2018-03-21T08:14:23.041Z,5.43
2018-03-21T08:16:50.749Z,3.85
2018-03-21T08:19:18.229Z,3.70
2018-03-21T08:21:46.432Z,5.63
2018-03-21T08:24:14.095Z,5.57
2018-03-21T08:26:41.578Z,5.62
2018-03-21T08:29:13.155Z,4.10
2018-03-21T08:31:40.622Z,4.50
2018-03-21T08:34:08.060Z,4.70
2018-03-21T08:36:36.041Z,5.53
2018-03-21T08:39:05.417Z,4.55
2018-03-21T08:41:32.860Z,5.78
2018-03-21T08:44:00.337Z,6.15
2018-03-21T08:46:27.791Z,4.60
2018-03-21T08:48:55.261Z,4.10
2018-03-21T08:51:22.705Z,4.43
2018-03-21T08:53:50.149Z,5.80
2018-03-21T08:56:18.534Z,4.70
2018-03-21T08:58:45.969Z,4.07
2018-03-21T09:01:13.433Z,6.30
2018-03-21T09:03:40.949Z,7.60
2018-03-21T09:06:08.406Z,6.05
2018-03-21T09:08:35.924Z,5.00
2018-03-21T09:11:03.522Z,4.67
2018-03-21T09:13:32.793Z,5.25
2018-03-21T09:16:00.280Z,5.50
2018-03-21T09:18:27.725Z,5.40
2018-03-21T09:20:56.101Z,4.43
2018-03-21T09:23:23.553Z,4.90
2018-03-21T09:25:51.585Z,4.78
2018-03-21T09:28:19.054Z,5.57
2018-03-21T09:30:50.325Z,5.45
2018-03-21T09:33:18.320Z,3.90
2018-03-21T09:35:46.359Z,4.10
2018-03-21T09:38:13.801Z,4.23
2018-03-21T09:40:41.305Z,4.68
2018-03-21T09:43:09.244Z,3.62
2018-03-21T09:45:36.684Z,4.50
2018-03-21T09:48:04.150Z,4.40
2018-03-21T09:50:31.622Z,4.30
2018-03-21T09:52:59.984Z,2.30
2018-03-21T09:55:27.925Z,2.90
2018-03-21T09:57:55.404Z,3.75
2018-03-21T10:00:22.872Z,4.40
2018-03-21T10:02:50.843Z,4.77
2018-03-21T10:05:19.933Z,4.45
2018-03-21T10:07:47.376Z,4.77
2018-03-21T10:10:14.816Z,3.43
2018-03-21T10:12:42.379Z,4.17
2018-03-21T10:15:09.813Z,2.55
2018-03-21T10:17:37.301Z,4.27
2018-03-21T10:20:04.755Z,4.20
2018-03-21T10:22:33.653Z,2.50
2018-03-21T10:25:01.866Z,4.57
2018-03-21T10:27:29.352Z,6.87
2018-03-21T10:29:58.177Z,5.15
2018-03-21T10:32:25.817Z,2.80
2018-03-21T10:34:53.285Z,2.90
2018-03-21T10:37:20.749Z,3.60
2018-03-21T10:39:48.205Z,2.90
2018-03-21T10:42:17.333Z,3.63
2018-03-21T10:44:44.908Z,3.53
2018-03-21T10:47:15.926Z,2.78
2018-03-21T10:49:43.422Z,2.98
2018-03-21T10:52:11.819Z,3.12
2018-03-21T10:54:39.253Z,3.73
2018-03-21T10:57:06.843Z,4.50
2018-03-21T10:59:34.306Z,2.93
2018-03-21T11:02:10.334Z,4.10
2018-03-21T11:04:38.537Z,4.27
2018-03-21T11:07:06.913Z,3.00
2018-03-21T11:09:34.368Z,3.92
2018-03-21T11:12:01.829Z,3.42
2018-03-21T11:14:29.301Z,3.20
2018-03-21T11:16:56.746Z,3.47
2018-03-21T11:19:27.009Z,2.55
2018-03-21T11:21:54.676Z,3.72
2018-03-21T11:24:22.148Z,3.37
2018-03-21T11:26:49.673Z,3.62
2018-03-21T11:29:17.127Z,4.73
2018-03-21T11:31:44.790Z,3.30
2018-03-21T11:34:12.253Z,4.90
2018-03-21T11:36:40.428Z,2.67
2018-03-21T11:39:07.901Z,3.53
2018-03-21T11:41:35.345Z,3.07
2018-03-21T11:44:02.782Z,2.47
2018-03-21T11:46:30.249Z,3.37
2018-03-21T11:48:57.871Z,3.60
2018-03-21T11:51:25.330Z,3.43
2018-03-21T11:53:54.465Z,2.97
2018-03-21T11:56:21.939Z,3.30
2018-03-21T11:58:49.389Z,2.70
2018-03-21T12:01:16.849Z,2.95
2018-03-21T12:03:44.320Z,3.10
2018-03-21T12:06:12.049Z,3.73
2018-03-21T12:08:39.555Z,4.70
2018-03-21T12:11:07.854Z,2.58
2018-03-21T12:13:35.338Z,3.10
2018-03-21T12:16:02.892Z,4.07
2018-03-21T12:18:34.321Z,3.73
2018-03-21T12:21:01.810Z,2.75
2018-03-21T12:23:29.273Z,3.03
2018-03-21T12:25:58.480Z,3.47
2018-03-21T12:28:26.125Z,2.97
2018-03-21T12:30:53.588Z,2.15
2018-03-21T12:33:26.090Z,3.60
2018-03-21T12:35:53.609Z,2.73
2018-03-21T12:38:21.215Z,2.30
2018-03-21T12:40:49.665Z,2.20
2018-03-21T12:43:17.286Z,2.42
2018-03-21T12:45:44.781Z,3.07
2018-03-21T12:48:12.216Z,2.60
2018-03-21T12:50:39.685Z,2.70
2018-03-21T12:53:07.137Z,2.37
2018-03-21T12:55:34.615Z,3.03
2018-03-21T12:58:02.085Z,2.90
2018-03-21T13:00:30.466Z,3.10
2018-03-21T13:02:57.982Z,3.28
2018-03-21T13:05:26.389Z,2.30
2018-03-21T13:07:53.825Z,2.37
2018-03-21T13:10:21.285Z,1.80
2018-03-21T13:12:48.757Z,2.83
2018-03-21T13:15:16.213Z,2.70
2018-03-21T13:17:44.217Z,2.50
2018-03-21T13:20:11.651Z,2.87
2018-03-21T13:22:40.005Z,3.47
2018-03-21T13:25:07.470Z,1.67
2018-03-21T13:27:34.908Z,2.73
2018-03-21T13:30:04.091Z,3.43
2018-03-21T13:32:31.597Z,2.60
2018-03-21T13:34:59.068Z,1.77
2018-03-21T13:37:26.573Z,2.10
2018-03-21T13:39:54.042Z,2.20
2018-03-21T13:42:21.505Z,2.70
2018-03-21T13:44:49.005Z,2.67
2018-03-21T13:47:18.024Z,2.60
2018-03-21T13:49:49.525Z,2.23
2018-03-21T13:52:18.075Z,1.50
2018-03-21T13:54:45.549Z,1.45
2018-03-21T13:57:13.049Z,2.35
2018-03-21T13:59:40.484Z,2.47
2018-03-21T14:02:07.979Z,2.17
2018-03-21T14:04:35.408Z,2.15
2018-03-21T14:07:02.869Z,1.80
2018-03-21T14:09:31.909Z,2.12
2018-03-21T14:11:59.378Z,2.30
2018-03-21T14:14:27.013Z,3.50
2018-03-21T14:16:56.137Z,2.33
2018-03-21T14:19:23.602Z,2.08
2018-03-21T14:21:51.054Z,1.83
2018-03-21T14:24:18.713Z,2.80
2018-03-21T14:26:46.181Z,2.60
2018-03-21T14:29:13.621Z,2.37
2018-03-21T14:31:41.425Z,2.50
2018-03-21T14:34:09.804Z,2.17
2018-03-21T14:36:37.270Z,2.53
2018-03-21T14:39:05.583Z,2.10
2018-03-21T14:41:33.213Z,2.20
2018-03-21T14:44:00.622Z,2.72
2018-03-21T14:46:28.138Z,1.80
2018-03-21T14:48:55.607Z,2.13
2018-03-21T14:51:23.618Z,2.60
2018-03-21T14:53:51.089Z,2.63
2018-03-21T14:56:20.042Z,2.25
2018-03-21T14:58:48.240Z,1.70
2018-03-21T15:01:15.901Z,2.20
2018-03-21T15:03:43.540Z,1.73
2018-03-21T15:06:11.419Z,2.37
2018-03-21T15:08:38.880Z,3.27
2018-03-21T15:11:06.337Z,2.00
2018-03-21T15:13:33.772Z,1.70
2018-03-21T15:16:01.611Z,2.20
2018-03-21T15:18:29.040Z,2.35
2018-03-21T15:20:59.810Z,2.47
2018-03-21T15:23:27.250Z,1.20
2018-03-21T15:25:54.756Z,1.90
2018-03-21T15:28:22.193Z,2.43
2018-03-21T15:30:49.662Z,1.83
2018-03-21T15:33:17.154Z,2.07
2018-03-21T15:35:44.818Z,2.35
2018-03-21T15:38:12.240Z,1.67
2018-03-21T15:40:40.055Z,2.25
2018-03-21T15:43:07.515Z,1.85
2018-03-21T15:45:35.066Z,2.07
2018-03-21T15:48:02.807Z,2.83
2018-03-21T15:50:30.251Z,2.83
2018-03-21T15:53:01.092Z,1.80
2018-03-21T15:55:29.490Z,1.80
2018-03-21T15:57:56.913Z,1.85
2018-03-21T16:00:24.373Z,2.10
2018-03-21T16:02:51.854Z,2.00
2018-03-21T16:05:19.470Z,2.50
2018-03-21T16:07:46.929Z,3.35
2018-03-21T16:10:14.459Z,2.67
2018-03-21T16:12:42.010Z,2.90
2018-03-21T16:15:09.423Z,3.45
2018-03-21T16:17:36.878Z,1.93
2018-03-21T16:20:04.330Z,3.27
2018-03-21T16:22:32.764Z,1.90
2018-03-21T16:25:01.023Z,1.73
2018-03-21T16:27:28.461Z,3.13
2018-03-21T16:29:56.841Z,2.30
2018-03-21T16:32:24.301Z,2.07
2018-03-21T16:34:51.777Z,2.43
2018-03-21T16:37:19.217Z,1.97
2018-03-21T16:39:47.452Z,2.33
2018-03-21T16:42:14.892Z,2.50
2018-03-21T16:44:42.650Z,2.85
2018-03-21T16:47:10.874Z,2.40
2018-03-21T16:49:38.309Z,2.27
2018-03-21T16:52:05.741Z,1.70
2018-03-21T16:54:36.775Z,2.43
2018-03-21T16:57:04.259Z,2.40
2018-03-21T16:59:31.962Z,2.00
2018-03-21T17:01:59.429Z,2.08
2018-03-21T17:04:26.901Z,2.87
2018-03-21T17:06:54.978Z,2.62
2018-03-21T17:09:26.883Z,2.87
2018-03-21T17:11:55.270Z,2.62
2018-03-21T17:14:22.734Z,2.10
2018-03-21T17:16:50.217Z,2.53
2018-03-21T17:19:17.687Z,2.97
2018-03-21T17:21:45.995Z,2.70
2018-03-21T17:24:15.109Z,2.68
2018-03-21T17:26:42.577Z,4.00
2018-03-21T17:29:10.005Z,2.40
2018-03-21T17:31:37.487Z,3.15
2018-03-21T17:34:04.926Z,2.53
2018-03-21T17:36:32.926Z,2.43
2018-03-21T17:39:04.168Z,2.67
2018-03-21T17:41:32.365Z,3.10
2018-03-21T17:44:00.176Z,1.77
2018-03-21T17:46:27.665Z,3.12
2018-03-21T17:48:55.160Z,3.10
2018-03-21T17:51:23.508Z,2.97
2018-03-21T17:53:55.064Z,2.78
2018-03-21T17:56:24.933Z,2.15
2018-03-21T18:01:26.219Z,3.12
2018-03-21T18:03:54.477Z,2.72
2018-03-21T18:06:21.937Z,2.60
2018-03-21T18:08:52.397Z,3.43
2018-03-21T18:11:19.833Z,3.78
2018-03-21T18:13:47.296Z,4.37
2018-03-21T18:16:15.119Z,3.87
2018-03-21T18:18:42.552Z,2.62
2018-03-21T18:21:10.019Z,4.28
2018-03-21T18:23:38.378Z,3.25
2018-03-21T18:26:07.362Z,3.40
2018-03-21T18:28:34.825Z,2.70
2018-03-21T18:31:02.950Z,2.20
2018-03-21T18:33:30.421Z,2.57
2018-03-21T18:35:57.890Z,3.97
2018-03-21T18:38:25.329Z,3.77
2018-03-21T18:40:52.771Z,4.07
2018-03-21T18:43:20.286Z,4.00
2018-03-21T18:45:47.685Z,4.37
2018-03-21T18:48:15.408Z,4.87
2018-03-21T18:50:42.853Z,4.30
2018-03-21T18:53:10.290Z,5.60
2018-03-21T18:55:37.778Z,3.90
2018-03-21T18:58:05.922Z,4.57
2018-03-21T19:00:33.457Z,4.77
2018-03-21T19:03:01.000Z,4.13
2018-03-21T19:05:28.712Z,4.18
2018-03-21T19:07:56.206Z,3.17
2018-03-21T19:10:23.641Z,3.53
2018-03-21T19:12:51.907Z,3.07
2018-03-21T19:15:20.143Z,3.70
2018-03-21T19:17:48.809Z,3.00
2018-03-21T19:20:16.325Z,3.57
2018-03-21T19:22:45.185Z,2.85
2018-03-21T19:25:15.533Z,3.33
2018-03-21T19:27:43.002Z,4.40
2018-03-21T19:30:10.470Z,3.57
2018-03-21T19:32:37.909Z,2.93
2018-03-21T19:35:05.397Z,3.90
2018-03-21T19:37:32.893Z,4.07
2018-03-21T19:40:00.345Z,3.67
2018-03-21T19:42:28.521Z,4.90
2018-03-21T19:44:56.375Z,5.87
2018-03-21T19:47:23.878Z,4.77
2018-03-21T19:49:51.329Z,4.47
2018-03-21T19:52:18.796Z,4.53
2018-03-21T19:54:46.268Z,3.93
2018-03-21T19:57:13.714Z,4.63
2018-03-21T19:59:42.081Z,4.25
2018-03-21T20:02:09.537Z,4.00
2018-03-21T20:04:37.007Z,5.03
2018-03-21T20:07:04.458Z,5.00
2018-03-21T20:09:32.089Z,4.47
2018-03-21T20:11:59.517Z,5.03
2018-03-21T20:14:27.021Z,4.53
2018-03-21T20:16:55.129Z,4.10
2018-03-21T20:19:22.570Z,4.90
2018-03-21T20:21:50.561Z,4.12
2018-03-21T20:24:18.783Z,5.10
2018-03-21T20:26:47.110Z,4.70
2018-03-21T20:29:15.136Z,4.18
2018-03-21T20:31:42.597Z,4.20
2018-03-21T20:34:10.052Z,3.77
2018-03-21T20:36:37.578Z,4.10
2018-03-21T20:39:04.981Z,4.20
2018-03-21T20:41:32.440Z,3.90
2018-03-21T20:43:59.909Z,3.87
2018-03-21T20:46:28.385Z,4.15
2018-03-21T20:48:56.835Z,4.20
2018-03-21T20:51:24.406Z,4.13
2018-03-21T20:53:51.868Z,4.13
2018-03-21T20:56:19.694Z,4.03
2018-03-21T20:58:48.618Z,4.03
2018-03-21T21:01:16.088Z,3.17
2018-03-21T21:03:43.569Z,3.87
2018-03-21T21:06:12.741Z,3.43
2018-03-21T21:08:40.205Z,3.50
2018-03-21T21:11:07.675Z,3.80
2018-03-21T21:13:35.117Z,3.70
2018-03-21T21:16:02.581Z,3.60
2018-03-21T21:18:30.033Z,3.63
2018-03-21T21:20:57.509Z,3.97
2018-03-21T21:23:26.668Z,4.33
2018-03-21T21:25:54.141Z,3.37
2018-03-21T21:28:21.705Z,4.50
2018-03-21T21:30:52.124Z,4.43
2018-03-21T21:33:19.573Z,3.30
2018-03-21T21:35:47.044Z,4.10
2018-03-21T21:38:14.502Z,3.90
2018-03-21T21:40:42.119Z,3.20
2018-03-21T21:43:13.222Z,3.85
2018-03-21T21:45:40.681Z,3.00
2018-03-21T21:48:08.134Z,3.07
2018-03-21T21:50:35.589Z,2.53
2018-03-21T21:53:03.126Z,2.93
2018-03-21T21:55:30.982Z,2.73
2018-03-21T21:57:58.468Z,3.47
2018-03-21T22:00:25.938Z,3.90
2018-03-21T22:02:54.313Z,2.80
2018-03-21T22:05:21.776Z,3.20
2018-03-21T22:07:49.252Z,3.10
2018-03-21T22:10:16.987Z,4.05
2018-03-21T22:12:47.514Z,2.93
2018-03-21T22:15:15.096Z,2.40
2018-03-21T22:17:44.566Z,3.57
2018-03-21T22:20:12.000Z,2.33
2018-03-21T22:22:39.476Z,3.07
2018-03-21T22:25:06.934Z,3.00
2018-03-21T22:27:34.404Z,3.07
2018-03-21T22:30:06.161Z,3.45
2018-03-21T22:32:33.664Z,2.57
2018-03-21T22:35:01.106Z,3.50
2018-03-21T22:37:28.582Z,3.15
2018-03-21T22:39:56.165Z,2.75
2018-03-21T22:42:23.658Z,4.20
2018-03-21T22:44:55.825Z,4.28
2018-03-21T22:47:23.295Z,3.77
2018-03-21T22:49:50.755Z,5.07
2018-03-21T22:52:18.213Z,4.47
2018-03-21T22:54:45.799Z,4.03
2018-03-21T22:57:13.233Z,3.90
2018-03-21T22:59:41.529Z,3.56
2018-03-21T23:02:08.965Z,4.07
2018-03-21T23:04:36.681Z,5.30
2018-03-21T23:07:04.157Z,4.35
2018-03-21T23:09:32.488Z,5.00
2018-03-21T23:11:59.933Z,5.07
2018-03-21T23:14:27.397Z,5.10
2018-03-21T23:16:55.539Z,4.45
2018-03-21T23:19:23.154Z,4.23
2018-03-21T23:21:51.721Z,4.00
2018-03-21T23:24:20.167Z,3.53
2018-03-21T23:26:48.381Z,4.43
2018-03-21T23:29:15.847Z,4.37
2018-03-21T23:31:43.298Z,4.67
2018-03-21T23:34:10.769Z,4.10
2018-03-21T23:36:39.743Z,4.55
2018-03-21T23:39:07.225Z,4.57
2018-03-21T23:41:34.792Z,3.60
2018-03-21T23:44:05.223Z,3.17
2018-03-21T23:46:33.586Z,3.33
2018-03-21T23:49:01.038Z,3.60
2018-03-21T23:51:28.690Z,3.17
2018-03-21T23:53:56.134Z,3.90
2018-03-21T23:56:23.626Z,3.80
2018-03-21T23:58:51.069Z,3.83
